Time;durP1;ratioP1;P1;durP2;ratioP2;P2;SDS_P1;SDS_P2;PMS_P1;PMS_P2;Temp;Humidity;BMP_temperature;BMP_pressure;BME280_temperature;BME280_humidity;BME280_pressure;Samples;Min_cycle;Max_cycle;Signal;HPM_P1;HPM_P2
2022/09/20 00:01:16;;;;;;;9.15;4.25;;;15.00;99.90;;;;;;5031059;28;20041;-67
2022/09/20 00:03:44;;;;;;;11.27;5.00;;;15.00;99.90;;;;;;5027073;28;20029;-67
2022/09/20 00:06:13;;;;;;;9.30;4.88;;;15.00;99.90;;;;;;5024168;28;20049;-70
2022/09/20 00:08:39;;;;;;;9.70;4.00;;;14.90;99.90;;;;;;5026742;28;20056;-66
2022/09/20 00:11:14;;;;;;;10.50;4.15;;;14.90;99.90;;;;;;5033200;28;20026;-67
2022/09/20 00:13:40;;;;;;;13.35;4.88;;;15.00;99.90;;;;;;5024128;28;20052;-67
2022/09/20 00:16:10;;;;;;;12.70;4.47;;;14.80;99.90;;;;;;5030026;28;20033;-67
2022/09/20 00:18:36;;;;;;;12.23;4.68;;;14.90;99.90;;;;;;5032101;28;20061;-67
2022/09/20 00:21:02;;;;;;;9.90;4.82;;;14.90;99.90;;;;;;5029374;28;20037;-67
2022/09/20 00:23:29;;;;;;;14.40;5.20;;;14.90;99.90;;;;;;5031498;28;20027;-67
2022/09/20 00:26:02;;;;;;;8.90;4.95;;;14.90;99.90;;;;;;5027661;28;20389;-67
2022/09/20 00:28:28;;;;;;;13.10;5.60;;;14.90;99.90;;;;;;5029873;28;20065;-67
2022/09/20 00:30:55;;;;;;;10.60;5.25;;;14.80;99.90;;;;;;5029439;28;20029;-66
2022/09/20 00:33:22;;;;;;;12.30;5.00;;;14.90;99.90;;;;;;5026877;28;20032;-67
2022/09/20 00:35:48;;;;;;;14.30;6.10;;;14.90;99.90;;;;;;5031632;28;20026;-67
2022/09/20 00:38:14;;;;;;;18.00;6.85;;;14.80;99.90;;;;;;5030781;28;20494;-68
2022/09/20 00:40:42;;;;;;;12.18;6.10;;;14.80;99.90;;;;;;5029281;28;20034;-67
2022/09/20 00:43:14;;;;;;;10.25;5.70;;;14.80;99.90;;;;;;5026962;28;20018;-68
2022/09/20 00:45:41;;;;;;;11.90;6.07;;;14.80;99.90;;;;;;5028464;28;20026;-68
2022/09/20 00:48:28;;;;;;;11.93;6.50;;;14.90;99.90;;;;;;5030351;28;20512;-68
2022/09/20 00:51:00;;;;;;;10.23;5.85;;;14.90;99.90;;;;;;5024877;28;20033;-67
2022/09/20 00:53:39;;;;;;;12.20;6.22;;;14.90;99.90;;;;;;5029236;28;20025;-68
2022/09/20 00:56:18;;;;;;;13.73;6.30;;;14.80;99.90;;;;;;5029189;28;20030;-68
2022/09/20 00:58:54;;;;;;;17.42;6.95;;;14.80;99.90;;;;;;5030133;28;20030;-68
2022/09/20 01:01:19;;;;;;;14.35;6.95;;;14.70;99.90;;;;;;5025069;28;20018;-68
2022/09/20 01:03:46;;;;;;;13.20;7.07;;;14.70;99.90;;;;;;5029983;28;20390;-68
2022/09/20 01:06:15;;;;;;;14.57;6.38;;;14.80;99.90;;;;;;5033480;28;20117;-67
2022/09/20 01:08:44;;;;;;;15.40;6.93;;;14.70;99.90;;;;;;5026135;28;20057;-66
2022/09/20 01:11:10;;;;;;;13.40;6.32;;;14.60;99.90;;;;;;5028616;28;20087;-68
2022/09/20 01:13:36;;;;;;;11.50;6.40;;;14.60;99.90;;;;;;5030773;28;20025;-65
2022/09/20 01:16:04;;;;;;;11.52;6.32;;;14.60;99.90;;;;;;5023448;28;20033;-66
2022/09/20 01:18:32;;;;;;;11.77;6.35;;;14.60;99.90;;;;;;5029349;28;20021;-66
2022/09/20 01:21:00;;;;;;;11.90;6.25;;;14.60;99.90;;;;;;5023932;28;20025;-67
2022/09/20 01:23:40;;;;;;;12.35;6.47;;;14.60;99.90;;;;;;5029066;28;20067;-67
2022/09/20 01:26:27;;;;;;;11.73;7.35;;;14.60;99.90;;;;;;5021983;28;20033;-67
2022/09/20 01:29:20;;;;;;;12.90;6.50;;;14.60;99.90;;;;;;5031603;28;20397;-67
2022/09/20 01:31:52;;;;;;;15.93;6.80;;;14.60;99.90;;;;;;5028205;28;20049;-67
2022/09/20 01:34:34;;;;;;;13.70;7.05;;;14.60;99.90;;;;;;5029528;28;20095;-68
2022/09/20 01:37:04;;;;;;;13.23;7.10;;;14.60;99.90;;;;;;5026474;28;20040;-67
2022/09/20 01:39:41;;;;;;;16.10;7.35;;;14.50;99.90;;;;;;5029041;28;20021;-68
2022/09/20 01:42:12;;;;;;;14.48;7.18;;;14.50;99.90;;;;;;5029170;28;20029;-67
2022/09/20 01:44:38;;;;;;;14.65;6.50;;;14.50;99.90;;;;;;5030521;28;20474;-66
2022/09/20 01:47:34;;;;;;;13.38;7.07;;;14.60;99.90;;;;;;5028502;28;20083;-66
2022/09/20 01:50:08;;;;;;;13.15;7.53;;;14.60;99.90;;;;;;5029249;28;20046;-66
2022/09/20 01:53:05;;;;;;;13.07;7.00;;;14.50;99.90;;;;;;5026235;28;20017;-68
2022/09/20 01:55:52;;;;;;;14.55;7.20;;;14.50;99.90;;;;;;5023732;28;20026;-67
2022/09/20 01:58:49;;;;;;;10.40;6.88;;;14.60;99.90;;;;;;5026130;28;20115;-67
2022/09/20 02:01:15;;;;;;;14.05;7.28;;;14.60;99.90;;;;;;5023439;28;20030;-67
2022/09/20 02:04:10;;;;;;;14.93;6.90;;;14.50;99.90;;;;;;5023345;28;20505;-67
2022/09/20 02:06:56;;;;;;;11.23;6.65;;;14.60;99.90;;;;;;5029397;28;20033;-67
2022/09/20 02:10:05;;;;;;;12.98;6.53;;;14.60;99.90;;;;;;5026498;28;20046;-67
2022/09/20 02:12:53;;;;;;;14.38;6.38;;;14.50;99.90;;;;;;5022701;28;20041;-67
2022/09/20 02:15:28;;;;;;;13.52;6.72;;;14.50;99.90;;;;;;5023979;28;20084;-68
2022/09/20 02:18:16;;;;;;;15.43;6.82;;;14.50;99.90;;;;;;5025369;28;20108;-67
2022/09/20 02:20:55;;;;;;;10.20;7.30;;;14.50;99.90;;;;;;5024411;28;20028;-67
2022/09/20 02:23:53;;;;;;;13.40;7.32;;;14.50;99.90;;;;;;5023011;28;20029;-68
2022/09/20 02:26:50;;;;;;;11.38;6.60;;;14.50;99.90;;;;;;5024769;28;20485;-67
2022/09/20 02:29:34;;;;;;;10.85;6.28;;;14.50;99.90;;;;;;5027822;28;20415;-67
2022/09/20 02:32:29;;;;;;;10.40;6.22;;;14.50;99.90;;;;;;5027191;28;20036;-67
2022/09/20 02:35:05;;;;;;;15.13;7.28;;;14.50;99.90;;;;;;5028839;28;20085;-68
2022/09/20 02:37:58;;;;;;;9.02;6.07;;;14.50;99.90;;;;;;5025808;28;20483;-67
2022/09/20 02:40:52;;;;;;;14.00;6.30;;;14.50;99.90;;;;;;5022337;28;20033;-67
2022/09/20 02:43:29;;;;;;;12.38;5.70;;;14.50;99.90;;;;;;5028188;28;20029;-66
2022/09/20 02:46:36;;;;;;;11.90;5.72;;;14.50;99.90;;;;;;5023654;28;20034;-67
2022/09/20 02:49:39;;;;;;;14.05;5.95;;;14.50;99.90;;;;;;5030151;28;20068;-67
2022/09/20 02:52:22;;;;;;;14.63;5.20;;;14.60;99.90;;;;;;5029545;28;21180;-67
2022/09/20 02:54:59;;;;;;;10.85;5.57;;;14.50;99.90;;;;;;5025317;28;20037;-66
2022/09/20 02:57:56;;;;;;;9.52;5.97;;;14.50;99.90;;;;;;5027597;28;20020;-67
2022/09/20 03:00:31;;;;;;;12.65;5.63;;;14.60;99.90;;;;;;5021006;28;20025;-67
2022/09/20 03:03:32;;;;;;;11.82;5.38;;;14.50;99.90;;;;;;5024685;28;20036;-67
2022/09/20 03:06:26;;;;;;;14.35;5.50;;;14.60;99.90;;;;;;5010391;28;20076;-66
2022/09/20 03:09:18;;;;;;;12.25;5.30;;;14.60;99.90;;;;;;5005855;28;20045;-67
2022/09/20 03:12:21;;;;;;;9.52;5.22;;;14.60;99.90;;;;;;5028218;28;20033;-67
2022/09/20 03:15:18;;;;;;;11.90;5.35;;;14.60;99.90;;;;;;5027133;28;20029;-67
2022/09/20 03:18:04;;;;;;;11.05;6.43;;;14.60;99.90;;;;;;5029310;28;20029;-67
2022/09/20 03:21:08;;;;;;;10.98;5.53;;;14.50;99.90;;;;;;5020819;28;20444;-66
2022/09/20 03:23:55;;;;;;;15.10;5.70;;;14.50;99.90;;;;;;5018714;28;20038;-66
2022/09/20 03:26:58;;;;;;;7.68;5.38;;;14.40;99.90;;;;;;5021617;28;20425;-66
2022/09/20 03:29:24;;;;;;;13.85;5.82;;;14.40;99.90;;;;;;5018204;28;20040;-67
2022/09/20 03:31:58;;;;;;;10.43;5.63;;;14.50;99.90;;;;;;5022512;28;20030;-66
2022/09/20 03:34:45;;;;;;;11.93;5.10;;;14.50;99.90;;;;;;5025009;28;20032;-66
2022/09/20 03:37:19;;;;;;;9.90;5.38;;;14.50;99.90;;;;;;5023606;28;20018;-66
2022/09/20 03:40:22;;;;;;;8.00;4.68;;;14.50;99.90;;;;;;5021973;28;20021;-67
2022/09/20 03:42:50;;;;;;;;;;;14.50;99.90;;;;;;5029723;28;20076;-67
2022/09/20 03:45:57;;;;;;;12.50;5.00;;;14.50;99.90;;;;;;5020533;28;19974;-66
2022/09/20 03:48:51;;;;;;;9.25;4.80;;;14.50;99.90;;;;;;5028126;28;20053;-67
2022/09/20 03:51:35;;;;;;;9.10;4.85;;;14.50;99.90;;;;;;5019132;28;20032;-66
2022/09/20 03:54:22;;;;;;;14.00;4.97;;;14.60;99.90;;;;;;5025391;28;20116;-67
2022/09/20 03:57:21;;;;;;;9.85;4.72;;;14.50;99.90;;;;;;5023112;28;20037;-67
2022/09/20 04:00:05;;;;;;;9.15;5.35;;;14.60;99.90;;;;;;5024978;28;20108;-68
2022/09/20 04:02:33;;;;;;;10.70;4.82;;;14.50;99.90;;;;;;5023049;28;20553;-66
2022/09/20 04:05:05;;;;;;;10.38;4.72;;;14.50;99.90;;;;;;5022212;28;20024;-68
2022/09/20 04:07:52;;;;;;;7.28;5.13;;;14.50;99.90;;;;;;5026308;28;20029;-67
2022/09/20 04:10:31;;;;;;;9.48;5.57;;;14.50;99.90;;;;;;5026396;28;20080;-67
2022/09/20 04:13:35;;;;;;;14.43;5.65;;;14.50;99.90;;;;;;5023038;28;20433;-67
2022/09/20 04:16:03;;;;;;;;;;;14.50;99.90;;;;;;5020468;28;20030;-68
2022/09/20 04:18:55;;;;;;;13.10;5.70;;;14.50;99.90;;;;;;5022728;28;19970;-67
2022/09/20 04:21:25;;;;;;;13.57;5.38;;;14.50;99.90;;;;;;5029035;28;20083;-67
2022/09/20 04:24:04;;;;;;;11.88;4.93;;;14.50;99.90;;;;;;5025063;28;20036;-68
2022/09/20 04:26:33;;;;;;;14.35;5.93;;;14.50;99.90;;;;;;5028655;28;20040;-67
2022/09/20 04:29:07;;;;;;;12.35;6.18;;;14.50;99.90;;;;;;5024097;28;20641;-68
2022/09/20 04:32:16;;;;;;;15.55;5.88;;;14.50;99.90;;;;;;5022760;28;20026;-67
2022/09/20 04:37:37;;;;;;;10.90;6.25;;;14.40;99.90;;;;;;5029278;28;20443;-66
2022/09/20 04:40:25;;;;;;;14.85;6.68;;;14.50;99.90;;;;;;5019173;28;20110;-67
2022/09/20 04:43:16;;;;;;;9.93;6.03;;;14.40;99.90;;;;;;5029551;28;20150;-67
2022/09/20 04:46:00;;;;;;;12.48;5.78;;;14.40;99.90;;;;;;5033671;28;20034;-68
2022/09/20 04:48:28;;;;;;;11.20;5.97;;;14.40;99.90;;;;;;5025623;28;20096;-67
2022/09/20 04:51:31;;;;;;;11.77;6.35;;;14.40;99.90;;;;;;5028040;28;20100;-67
2022/09/20 04:54:15;;;;;;;9.70;5.57;;;14.40;99.90;;;;;;5024706;28;20029;-67
2022/09/20 04:57:08;;;;;;;17.83;6.60;;;14.40;99.90;;;;;;5029441;28;20045;-69
2022/09/20 04:59:42;;;;;;;11.32;5.63;;;14.50;99.90;;;;;;5028904;28;20018;-67
2022/09/20 05:02:27;;;;;;;12.90;6.68;;;14.50;99.90;;;;;;5027397;28;20034;-67
2022/09/20 05:04:55;;;;;;;14.57;6.10;;;14.50;99.90;;;;;;5024355;28;20509;-68
2022/09/20 05:07:41;;;;;;;13.40;6.50;;;14.50;99.90;;;;;;5027828;28;20029;-67
2022/09/20 05:10:14;;;;;;;15.32;6.80;;;14.50;99.90;;;;;;5021477;28;20156;-66
2022/09/20 05:12:53;;;;;;;10.77;6.72;;;14.50;99.90;;;;;;5028515;28;20367;-67
2022/09/20 05:15:18;;;;;;;15.77;6.47;;;14.50;99.90;;;;;;5031258;28;20022;-66
2022/09/20 05:18:16;;;;;;;11.60;7.15;;;14.50;99.90;;;;;;5025566;28;20028;-67
2022/09/20 05:21:12;;;;;;;14.23;8.18;;;14.50;99.90;;;;;;5019464;28;20045;-66
2022/09/20 05:24:05;;;;;;;14.88;7.53;;;14.50;99.90;;;;;;5029176;28;20473;-67
2022/09/20 05:26:30;;;;;;;15.68;7.05;;;14.50;99.90;;;;;;5032145;28;20387;-67
2022/09/20 05:29:10;;;;;;;11.55;6.82;;;14.40;99.90;;;;;;5026469;28;20034;-67
2022/09/20 05:31:48;;;;;;;13.45;7.20;;;14.40;99.90;;;;;;5033929;28;20104;-69
2022/09/20 05:34:51;;;;;;;12.82;7.30;;;14.40;99.90;;;;;;5025448;28;20112;-68
2022/09/20 05:37:54;;;;;;;14.95;7.43;;;14.40;99.90;;;;;;5027877;28;20129;-67
2022/09/20 05:40:32;;;;;;;14.80;6.93;;;14.40;99.90;;;;;;5032377;28;20037;-68
2022/09/20 05:43:10;;;;;;;9.25;6.05;;;14.50;99.90;;;;;;5029185;28;20065;-67
2022/09/20 05:45:57;;;;;;;12.25;6.63;;;14.40;99.90;;;;;;5031590;28;20032;-67
2022/09/20 05:48:54;;;;;;;12.10;6.13;;;14.40;99.90;;;;;;5026468;28;20026;-67
2022/09/20 05:51:44;;;;;;;12.35;6.72;;;14.40;99.90;;;;;;5023018;28;20021;-67
2022/09/20 05:54:42;;;;;;;13.35;7.13;;;14.40;99.90;;;;;;5027591;28;20026;-67
2022/09/20 05:57:11;;;;;;;11.50;5.93;;;14.40;99.90;;;;;;5025342;28;20037;-68
2022/09/20 05:59:44;;;;;;;10.43;6.35;;;14.40;99.90;;;;;;5028955;28;20055;-67
2022/09/20 06:02:40;;;;;;;13.13;6.35;;;14.40;99.90;;;;;;5024130;28;20359;-66
2022/09/20 06:05:35;;;;;;;10.70;6.97;;;14.40;99.90;;;;;;5025498;28;20033;-67
2022/09/20 06:08:28;;;;;;;11.05;6.07;;;14.40;99.90;;;;;;5029377;28;20128;-66
2022/09/20 06:11:08;;;;;;;13.65;6.07;;;14.40;99.90;;;;;;5032924;28;20527;-67
2022/09/20 06:13:58;;;;;;;15.68;6.57;;;14.50;99.90;;;;;;5019220;28;20026;-68
2022/09/20 06:17:06;;;;;;;12.77;6.95;;;14.50;99.90;;;;;;5013169;28;20491;-68
2022/09/20 06:19:58;;;;;;;12.23;5.85;;;14.50;99.90;;;;;;5011984;28;20455;-67
2022/09/20 06:22:24;;;;;;;13.30;6.13;;;14.60;99.90;;;;;;5032565;28;20390;-67
2022/09/20 06:25:08;;;;;;;11.60;6.43;;;14.60;99.90;;;;;;5033245;28;20029;-67
2022/09/20 06:27:42;;;;;;;10.85;5.30;;;14.60;99.90;;;;;;5031729;28;20032;-67
2022/09/20 06:30:21;;;;;;;8.35;6.13;;;14.60;99.90;;;;;;5033038;28;20029;-68
2022/09/20 06:33:09;;;;;;;9.82;5.88;;;14.60;99.90;;;;;;5031529;28;20033;-66
2022/09/20 06:41:25;;;;;;;11.98;5.43;;;14.60;99.90;;;;;;5031867;28;20480;-67
2022/09/20 06:41:43;;;;;;;13.20;6.50;;;14.70;99.90;;;;;;5032266;28;20040;-67
2022/09/20 06:44:08;;;;;;;10.95;6.00;;;14.70;99.90;;;;;;5032842;28;20022;-66
2022/09/20 06:46:35;;;;;;;14.18;5.97;;;14.70;99.90;;;;;;5030888;28;20429;-67
2022/09/20 06:49:03;;;;;;;10.57;6.65;;;14.60;99.90;;;;;;5031709;28;20375;-67
2022/09/20 06:51:34;;;;;;;13.20;6.20;;;14.60;99.90;;;;;;5032116;28;20052;-67
2022/09/20 06:54:00;;;;;;;13.70;6.07;;;14.50;99.90;;;;;;5032169;28;20462;-67
2022/09/20 06:56:30;;;;;;;12.27;6.55;;;14.60;99.90;;;;;;5033034;28;20493;-67
2022/09/20 06:58:56;;;;;;;13.85;7.50;;;14.60;99.90;;;;;;5032406;28;20021;-68
2022/09/20 07:01:22;;;;;;;13.63;6.90;;;14.60;99.90;;;;;;5031821;28;20014;-68
2022/09/20 07:03:47;;;;;;;14.73;6.65;;;14.70;99.90;;;;;;5031587;28;20393;-67
2022/09/20 07:06:18;;;;;;;10.52;6.38;;;14.70;99.90;;;;;;5031525;28;20113;-69
2022/09/20 07:08:45;;;;;;;13.07;6.75;;;14.70;99.90;;;;;;5030396;28;20425;-67
2022/09/20 07:11:15;;;;;;;10.93;6.35;;;14.70;99.90;;;;;;5031905;28;20033;-68
2022/09/20 07:13:44;;;;;;;11.73;6.82;;;14.70;99.90;;;;;;5032103;28;20037;-67
2022/09/20 07:16:13;;;;;;;10.18;6.53;;;14.70;99.90;;;;;;5031862;28;20033;-69
2022/09/20 07:18:40;;;;;;;14.20;6.60;;;14.70;99.90;;;;;;5031537;28;20026;-67
2022/09/20 07:21:14;;;;;;;17.23;6.40;;;14.70;99.90;;;;;;5032436;28;20040;-67
2022/09/20 07:23:39;;;;;;;9.55;6.55;;;14.70;99.90;;;;;;5031997;28;20530;-69
2022/09/20 07:26:14;;;;;;;12.60;5.78;;;14.80;99.90;;;;;;5032494;28;20022;-67
2022/09/20 07:28:40;;;;;;;8.68;6.18;;;14.70;99.90;;;;;;5032132;28;20057;-69
2022/09/20 07:31:06;;;;;;;10.13;6.10;;;14.80;99.90;;;;;;5030772;28;20521;-69
2022/09/20 07:33:31;;;;;;;9.73;5.45;;;14.90;99.90;;;;;;5031840;28;20433;-67
2022/09/20 07:35:57;;;;;;;8.15;5.78;;;14.90;99.90;;;;;;5031887;28;20113;-67
2022/09/20 07:38:23;;;;;;;9.85;5.78;;;14.90;99.90;;;;;;5030113;28;20105;-67
2022/09/20 07:40:58;;;;;;;9.65;5.03;;;14.80;99.90;;;;;;5032225;28;20018;-68
2022/09/20 07:43:26;;;;;;;9.23;5.63;;;14.90;99.90;;;;;;5032555;28;20712;-67
2022/09/20 07:45:54;;;;;;;8.98;5.35;;;15.00;99.90;;;;;;5031414;28;20057;-67
2022/09/20 07:48:25;;;;;;;9.68;4.90;;;15.10;99.90;;;;;;5032149;28;20040;-67
2022/09/20 07:51:05;;;;;;;8.05;4.70;;;15.10;99.90;;;;;;5031742;28;20057;-68
2022/09/20 07:53:31;;;;;;;6.10;4.45;;;15.10;99.90;;;;;;5033613;28;20075;-66
2022/09/20 07:56:01;;;;;;;6.03;4.10;;;15.10;99.90;;;;;;5035447;28;20018;-69
2022/09/20 07:58:28;;;;;;;12.70;3.70;;;15.10;99.90;;;;;;5035673;28;20109;-67
2022/09/20 08:00:55;;;;;;;8.27;3.95;;;15.20;99.90;;;;;;5034698;28;20025;-67
2022/09/20 08:03:21;;;;;;;8.73;3.83;;;15.20;99.90;;;;;;5035380;28;20060;-68
2022/09/20 08:05:49;;;;;;;7.40;3.70;;;15.10;99.90;;;;;;5035392;28;20068;-68
2022/09/20 08:08:16;;;;;;;7.35;3.15;;;15.20;99.90;;;;;;5035356;28;20040;-67
2022/09/20 08:10:46;;;;;;;6.93;3.33;;;15.20;99.90;;;;;;5035207;28;20017;-68
2022/09/20 08:13:13;;;;;;;6.32;3.03;;;15.20;99.90;;;;;;5034685;28;20033;-68
2022/09/20 08:15:39;;;;;;;10.05;3.47;;;15.40;99.90;;;;;;5034881;28;20072;-68
2022/09/20 08:18:07;;;;;;;7.35;2.72;;;15.30;99.90;;;;;;5035509;28;20037;-69
2022/09/20 08:20:35;;;;;;;10.02;2.85;;;15.30;99.90;;;;;;5034960;28;20029;-67
2022/09/20 08:23:03;;;;;;;6.00;2.50;;;15.30;99.90;;;;;;5035482;28;20053;-67
2022/09/20 08:25:29;;;;;;;6.75;2.83;;;15.50;99.90;;;;;;5035543;28;20025;-68
2022/09/20 08:27:54;;;;;;;8.05;3.08;;;15.60;99.90;;;;;;5034252;28;20104;-69
2022/09/20 08:30:20;;;;;;;8.20;2.78;;;15.60;99.90;;;;;;5034355;28;20026;-67
2022/09/20 08:32:46;;;;;;;6.88;2.25;;;15.70;99.90;;;;;;5035015;28;20029;-68
2022/09/20 08:35:13;;;;;;;4.70;2.00;;;15.80;99.90;;;;;;5032180;28;20022;-68
2022/09/20 08:37:40;;;;;;;7.18;1.85;;;15.80;99.90;;;;;;5034160;28;20106;-67
2022/09/20 08:40:06;;;;;;;6.82;1.60;;;15.80;99.90;;;;;;5014332;28;20026;-68
2022/09/20 08:42:35;;;;;;;4.40;1.20;;;15.80;99.90;;;;;;5015017;28;20034;-68
2022/09/20 08:45:22;;;;;;;5.55;1.30;;;15.90;99.90;;;;;;5014813;28;20022;-68
2022/09/20 08:47:56;;;;;;;7.88;1.55;;;15.80;99.90;;;;;;5014545;28;20109;-69
2022/09/20 08:50:22;;;;;;;5.65;1.40;;;16.00;99.90;;;;;;5028466;28;20041;-68
2022/09/20 08:52:52;;;;;;;5.22;1.27;;;15.90;99.90;;;;;;5034509;28;20032;-68
2022/09/20 08:55:21;;;;;;;6.47;1.40;;;16.00;99.90;;;;;;5034470;28;20038;-68
2022/09/20 08:57:50;;;;;;;7.68;1.48;;;15.90;99.90;;;;;;5033434;28;20032;-69
2022/09/20 09:00:25;;;;;;;5.75;1.50;;;16.00;99.90;;;;;;5032962;28;20108;-68
2022/09/20 09:02:56;;;;;;;6.30;1.17;;;16.10;99.90;;;;;;5033975;28;20028;-68
2022/09/20 09:05:31;;;;;;;6.97;1.27;;;16.30;99.90;;;;;;5033126;28;20022;-67
2022/09/20 09:08:03;;;;;;;3.88;1.10;;;16.40;99.90;;;;;;5034284;28;20029;-68
2022/09/20 09:10:36;;;;;;;6.60;0.90;;;16.50;99.90;;;;;;5034054;28;20033;-68
2022/09/20 09:13:04;;;;;;;4.60;1.25;;;16.60;99.90;;;;;;5032279;28;20040;-69
2022/09/20 09:15:34;;;;;;;3.70;1.15;;;16.50;99.90;;;;;;5032422;28;20042;-71
2022/09/20 09:18:00;;;;;;;6.00;1.15;;;16.50;99.90;;;;;;5032197;28;20493;-67
2022/09/20 09:20:25;;;;;;;8.00;1.33;;;16.50;99.90;;;;;;5032041;28;20055;-68
2022/09/20 09:23:07;;;;;;;5.05;1.08;;;16.60;99.90;;;;;;5034224;28;20427;-69
2022/09/20 09:25:39;;;;;;;3.73;1.17;;;16.70;99.90;;;;;;5032654;28;20055;-67
2022/09/20 09:28:08;;;;;;;7.50;1.08;;;16.80;99.90;;;;;;5033958;28;20486;-68
2022/09/20 09:30:36;;;;;;;3.10;0.82;;;16.90;99.90;;;;;;5031967;28;20096;-67
2022/09/20 09:33:22;;;;;;;8.75;1.25;;;17.00;99.90;;;;;;5012622;28;20026;-68
2022/09/20 09:35:55;;;;;;;6.97;1.52;;;17.00;99.90;;;;;;5032888;28;20851;-67
2022/09/20 09:38:27;;;;;;;2.65;0.80;;;17.20;99.90;;;;;;5032126;28;20025;-68
2022/09/20 09:40:58;;;;;;;5.72;1.08;;;17.30;99.90;;;;;;5033071;28;20509;-69
2022/09/20 09:43:27;;;;;;;4.50;1.02;;;17.50;99.90;;;;;;5033132;28;20389;-68
2022/09/20 09:45:55;;;;;;;7.20;0.93;;;17.60;99.90;;;;;;5032704;28;20033;-67
2022/09/20 09:48:31;;;;;;;5.57;0.85;;;17.70;99.90;;;;;;5032942;28;20056;-67
2022/09/20 09:51:14;;;;;;;5.07;1.02;;;17.80;99.90;;;;;;5031966;28;20033;-67
2022/09/20 09:53:41;;;;;;;3.42;1.05;;;17.90;99.90;;;;;;5031789;28;20347;-67
2022/09/20 09:56:26;;;;;;;6.35;0.98;;;18.00;99.90;;;;;;5031614;28;20021;-67
2022/09/20 09:59:09;;;;;;;4.50;1.25;;;18.20;99.90;;;;;;5032456;28;20104;-68
2022/09/20 10:01:38;;;;;;;5.07;0.80;;;18.30;99.90;;;;;;5022447;28;20026;-67
2022/09/20 10:04:27;;;;;;;5.63;0.90;;;18.20;99.90;;;;;;5008674;28;20068;-70
2022/09/20 10:07:13;;;;;;;4.97;0.70;;;18.30;99.90;;;;;;5019555;28;20025;-67
2022/09/20 10:09:50;;;;;;;6.15;0.80;;;18.40;99.90;;;;;;5029652;28;20044;-67
2022/09/20 10:12:31;;;;;;;4.72;1.00;;;18.50;99.90;;;;;;5045042;28;20582;-67
2022/09/20 10:15:23;;;;;;;4.97;1.08;;;18.50;99.90;;;;;;5019178;28;20430;-67
2022/09/20 10:18:27;;;;;;;3.58;0.98;;;18.60;99.90;;;;;;5044430;28;20029;-67
2022/09/20 10:20:56;;;;;;;6.78;1.35;;;18.70;99.90;;;;;;5022102;28;20053;-67
2022/09/20 10:23:36;;;;;;;3.55;0.73;;;18.80;99.90;;;;;;5038764;28;20033;-69
2022/09/20 10:26:24;;;;;;;6.03;0.90;;;18.90;99.90;;;;;;5035973;28;20025;-67
2022/09/20 10:29:14;;;;;;;4.45;1.00;;;18.90;99.90;;;;;;5019419;28;20056;-67
2022/09/20 10:31:59;;;;;;;4.55;1.05;;;18.90;99.90;;;;;;5040673;28;20061;-67
2022/09/20 10:34:52;;;;;;;4.15;1.10;;;18.90;99.90;;;;;;5048083;28;20017;-68
2022/09/20 10:37:49;;;;;;;9.95;1.42;;;18.90;99.90;;;;;;5026527;28;20082;-67
2022/09/20 10:40:15;;;;;;;8.40;1.27;;;18.80;99.90;;;;;;5035932;28;20064;-67
2022/09/20 10:46:05;;;;;;;15.43;1.20;;;18.50;99.90;;;;;;5042534;28;20040;-67
2022/09/20 10:48:38;;;;;;;4.28;1.38;;;18.40;99.90;;;;;;5031061;28;20071;-68
2022/09/20 10:51:30;;;;;;;8.27;1.15;;;18.20;99.90;;;;;;5037791;28;20040;-67
2022/09/20 10:54:34;;;;;;;7.40;1.30;;;18.10;99.90;;;;;;5037906;28;20036;-67
2022/09/20 10:57:51;;;;;;;13.30;1.70;;;18.00;99.90;;;;;;5022590;28;20116;-67
2022/09/20 11:00:35;;;;;;;3.60;0.90;;;17.90;99.90;;;;;;5035362;28;20049;-67
2022/09/20 11:03:19;;;;;;;4.47;2.60;;;17.80;99.90;;;;;;5032991;28;20462;-67
2022/09/20 11:05:50;;;;;;;9.70;1.30;;;17.70;99.90;;;;;;5047839;28;20037;-67
2022/09/20 11:08:25;;;;;;;6.90;1.13;;;17.60;99.90;;;;;;5035516;28;20045;-67
2022/09/20 11:11:09;;;;;;;3.75;1.00;;;17.60;99.90;;;;;;5020303;28;20017;-67
2022/09/20 11:13:56;;;;;;;6.45;0.80;;;17.50;99.90;;;;;;5038789;28;20040;-67
2022/09/20 11:16:54;;;;;;;9.80;1.20;;;17.50;99.90;;;;;;5043332;28;20037;-67
2022/09/20 11:19:35;;;;;;;5.80;1.35;;;17.40;99.90;;;;;;5020301;28;20093;-67
2022/09/20 11:22:37;;;;;;;6.63;0.90;;;17.20;99.90;;;;;;5044928;28;20061;-67
2022/09/20 11:25:26;;;;;;;8.05;1.58;;;17.10;99.90;;;;;;5034798;28;20025;-67
2022/09/20 11:28:08;;;;;;;9.73;1.33;;;17.10;99.90;;;;;;5041745;28;20022;-67
2022/09/20 11:30:40;;;;;;;9.55;1.23;;;16.90;99.90;;;;;;5051842;28;20083;-67
2022/09/20 11:33:17;;;;;;;5.38;1.23;;;16.80;99.90;;;;;;5040562;28;20120;-68
2022/09/20 11:35:53;;;;;;;8.20;1.10;;;16.80;99.90;;;;;;5046307;28;20032;-68
2022/09/20 11:38:31;;;;;;;4.35;0.90;;;16.70;99.90;;;;;;5038891;28;20030;-68
2022/09/20 11:41:24;;;;;;;8.20;1.02;;;16.70;99.90;;;;;;5030124;28;20013;-69
2022/09/20 11:43:52;;;;;;;12.20;1.40;;;16.70;99.90;;;;;;5042042;28;20452;-69
2022/09/20 11:46:25;;;;;;;5.72;1.23;;;16.70;99.90;;;;;;5050769;28;20029;-67
2022/09/20 11:49:23;;;;;;;5.63;1.30;;;16.70;99.90;;;;;;5023363;28;20049;-69
2022/09/20 11:52:16;;;;;;;7.53;1.27;;;16.70;99.90;;;;;;5041357;28;20048;-67
2022/09/20 11:55:00;;;;;;;5.15;1.02;;;16.70;99.90;;;;;;5052898;28;20505;-67
2022/09/20 11:57:27;;;;;;;5.15;1.15;;;16.80;99.90;;;;;;5046641;28;20466;-68
2022/09/20 11:59:56;;;;;;;8.52;1.00;;;16.70;99.90;;;;;;5047107;28;20024;-68
2022/09/20 12:02:40;;;;;;;6.53;0.90;;;16.90;99.90;;;;;;5038102;28;20087;-68
2022/09/20 12:05:28;;;;;;;3.95;0.93;;;16.90;99.90;;;;;;5026272;28;20059;-68
2022/09/20 12:07:56;;;;;;;5.82;0.93;;;17.00;99.90;;;;;;5041826;28;20381;-68
2022/09/20 12:10:29;;;;;;;6.25;1.27;;;17.00;99.90;;;;;;5051542;28;20075;-67
2022/09/20 12:12:56;;;;;;;;;;;17.00;99.90;;;;;;5043863;28;20037;-68
2022/09/20 12:15:38;;;;;;;6.68;1.35;;;17.00;99.90;;;;;;5046381;28;19909;-70
2022/09/20 12:18:31;;;;;;;3.60;1.00;;;17.40;99.90;;;;;;5048816;28;20025;-69
2022/09/20 12:20:58;;;;;;;;;;;17.80;99.90;;;;;;5024785;28;20552;-67
2022/09/20 12:23:39;;;;;;;6.90;1.45;;;18.10;99.90;;;;;;5044876;28;20043;-69
2022/09/20 12:26:12;;;;;;;3.53;1.08;;;18.00;99.90;;;;;;5048472;28;20025;-68
2022/09/20 12:28:38;;;;;;;3.78;1.20;;;17.90;99.90;;;;;;5037429;28;20037;-70
2022/09/20 12:31:21;;;;;;;46.35;3.42;;;17.80;99.90;;;;;;5048070;28;20116;-67
2022/09/20 12:34:10;;;;;;;9.35;1.30;;;17.70;99.90;;;;;;5045805;28;20086;-68
2022/09/20 12:36:49;;;;;;;8.75;1.10;;;17.70;99.90;;;;;;5037400;28;20049;-69
2022/09/20 12:39:17;;;;;;;16.73;1.83;;;17.70;99.90;;;;;;5045233;28;20033;-68
2022/09/20 12:41:53;;;;;;;7.95;1.40;;;17.50;99.90;;;;;;5042179;28;20085;-68
2022/09/20 12:44:38;;;;;;;7.82;1.35;;;17.50;99.90;;;;;;5050251;28;20061;-68
2022/09/20 12:47:05;;;;;;;10.80;1.20;;;17.50;99.90;;;;;;5031428;28;20108;-68
2022/09/20 12:55:32;;;;;;;9.95;1.40;;;17.20;99.90;;;;;;5027890;28;20409;-68
2022/09/20 12:58:16;;;;;;;7.22;1.10;;;17.10;99.90;;;;;;5040808;28;20017;-68
2022/09/20 13:00:45;;;;;;;8.40;1.58;;;17.10;99.90;;;;;;5049759;28;20752;-69
2022/09/20 13:03:13;;;;;;;6.43;1.50;;;17.10;99.90;;;;;;5033272;28;20060;-68
2022/09/20 13:05:45;;;;;;;6.80;1.60;;;17.10;99.90;;;;;;5042800;28;20033;-70
2022/09/20 13:08:11;;;;;;;7.88;1.40;;;17.00;99.90;;;;;;5042098;28;20112;-68
2022/09/20 13:10:48;;;;;;;5.60;1.00;;;17.00;99.90;;;;;;5036259;28;20116;-68
2022/09/20 13:13:43;;;;;;;7.30;1.40;;;17.10;99.90;;;;;;5045856;28;20029;-69
2022/09/20 13:16:37;;;;;;;4.88;1.23;;;17.20;99.90;;;;;;5032894;28;20030;-68
2022/09/20 13:19:10;;;;;;;5.97;1.00;;;17.30;99.90;;;;;;5034882;28;20053;-67
2022/09/20 13:21:55;;;;;;;4.28;1.00;;;17.40;99.90;;;;;;5045814;28;20133;-69
2022/09/20 13:24:23;;;;;;;5.82;1.05;;;17.40;99.90;;;;;;5049265;28;20029;-69
2022/09/20 13:26:51;;;;;;;5.00;0.90;;;17.60;99.90;;;;;;5020993;28;20040;-67
2022/09/20 13:29:33;;;;;;;7.78;0.90;;;17.70;99.90;;;;;;5041584;28;20056;-68
2022/09/20 13:32:24;;;;;;;6.22;0.93;;;17.70;99.90;;;;;;5038070;28;20111;-67
2022/09/20 13:35:08;;;;;;;4.88;0.82;;;17.80;99.90;;;;;;5035490;28;20039;-68
2022/09/20 13:37:43;;;;;;;5.10;1.00;;;17.70;99.90;;;;;;5030113;28;20049;-68
2022/09/20 13:40:19;;;;;;;6.65;1.00;;;17.90;99.90;;;;;;5023454;28;20033;-68
2022/09/20 13:42:47;;;;;;;5.40;0.88;;;17.90;99.90;;;;;;5030759;28;20033;-70
2022/09/20 13:45:15;;;;;;;4.45;1.05;;;17.90;99.90;;;;;;5026504;28;20104;-69
2022/09/20 13:47:42;;;;;;;5.05;0.88;;;18.00;99.90;;;;;;5027682;28;20169;-70
2022/09/20 13:50:43;;;;;;;4.25;1.02;;;17.90;99.90;;;;;;5018573;28;20038;-73
2022/09/20 13:53:17;;;;;;;9.65;1.20;;;18.00;99.90;;;;;;5025739;28;20068;-73
2022/09/20 13:55:44;;;;;;;6.55;1.23;;;18.00;99.90;;;;;;5031202;28;20033;-73